Time;durP1;ratioP1;P1;durP2;ratioP2;P2;SDS_P1;SDS_P2;PMS_P1;PMS_P2;Temp;Humidity;BMP_temperature;BMP_pressure;BME280_temperature;BME280_humidity;BME280_pressure;Samples;Min_cycle;Max_cycle;Signal;HPM_P1;HPM_P2
2023/10/16 00:00:40;;;;;;;3.60;2.53;;;9.80;99.90;;;;;;5007696;28;20470;-86
2023/10/16 00:03:38;;;;;;;2.87;1.80;;;9.80;99.90;;;;;;5007136;28;20564;-86
2023/10/16 00:06:22;;;;;;;2.60;2.40;;;9.90;99.90;;;;;;5007928;28;20450;-85
2023/10/16 00:09:22;;;;;;;5.13;2.60;;;10.00;99.50;;;;;;5009131;28;20465;-86
2023/10/16 00:12:09;;;;;;;3.97;2.40;;;9.90;99.90;;;;;;5006783;28;20554;-86
2023/10/16 00:15:16;;;;;;;5.17;2.47;;;10.00;99.40;;;;;;5039358;22;20918;-87
2023/10/16 00:17:59;;;;;;;4.77;2.70;;;10.00;99.30;;;;;;5021629;28;20459;-84
2023/10/16 00:21:09;;;;;;;4.20;2.30;;;9.70;99.90;;;;;;5001939;28;20541;-86
2023/10/16 00:23:57;;;;;;;5.63;2.50;;;9.60;99.90;;;;;;5014902;28;20478;-87
2023/10/16 00:27:00;;;;;;;2.60;2.20;;;9.60;99.90;;;;;;5010162;28;20480;-84
2023/10/16 00:29:58;;;;;;;5.03;3.47;;;9.60;99.90;;;;;;5008805;28;20488;-87
2023/10/16 00:32:48;;;;;;;4.33;2.70;;;9.50;99.90;;;;;;5027323;28;20464;-85
2023/10/16 00:35:44;;;;;;;3.00;2.63;;;9.60;99.90;;;;;;5013613;28;21157;-87
2023/10/16 00:38:51;;;;;;;5.20;3.20;;;9.40;99.90;;;;;;5007409;28;20464;-85
2023/10/16 00:41:32;;;;;;;3.50;2.57;;;9.50;99.90;;;;;;5019583;28;20498;-85
2023/10/16 00:44:54;;;;;;;5.27;3.00;;;9.50;99.90;;;;;;5024329;28;20473;-85
2023/10/16 00:47:32;;;;;;;3.23;2.93;;;9.40;99.90;;;;;;5024540;28;21093;-85
2023/10/16 00:50:30;;;;;;;3.90;2.70;;;9.40;99.90;;;;;;5018263;28;20552;-87
2023/10/16 00:53:13;;;;;;;7.37;2.47;;;9.40;99.90;;;;;;5016111;28;20465;-86
2023/10/16 00:56:02;;;;;;;5.57;3.47;;;9.30;99.90;;;;;;5020079;28;20487;-86
2023/10/16 00:58:47;;;;;;;2.90;2.60;;;9.40;99.90;;;;;;5008545;28;20533;-86
2023/10/16 01:01:31;;;;;;;2.80;2.53;;;9.40;99.90;;;;;;5008450;28;20467;-85
2023/10/16 01:04:19;;;;;;;4.23;3.10;;;9.40;99.90;;;;;;5022490;28;20488;-89
2023/10/16 01:06:54;;;;;;;4.07;2.87;;;9.40;99.90;;;;;;5017325;28;20545;-86
2023/10/16 01:09:40;;;;;;;4.57;2.90;;;9.60;99.90;;;;;;4997004;28;20497;-85
2023/10/16 01:13:09;;;;;;;4.20;3.00;;;9.70;99.90;;;;;;4968473;28;22356;-87
2023/10/16 01:16:17;;;;;;;5.60;2.77;;;9.90;99.90;;;;;;4891262;29;20484;-85
2023/10/16 01:19:08;;;;;;;3.80;2.77;;;9.80;99.90;;;;;;4912711;29;20824;-85
2023/10/16 01:22:11;;;;;;;3.73;3.10;;;9.60;99.90;;;;;;4898914;29;20515;-84
2023/10/16 01:24:55;;;;;;;5.50;3.77;;;9.40;99.90;;;;;;4896395;29;20534;-84
2023/10/16 01:28:19;;;;;;;3.63;2.70;;;9.20;99.90;;;;;;4896347;29;20469;-86
2023/10/16 01:31:07;;;;;;;4.70;3.53;;;9.00;99.90;;;;;;4882946;29;20535;-86
2023/10/16 01:33:46;;;;;;;8.73;3.40;;;9.10;99.90;;;;;;4894427;29;20495;-87
2023/10/16 01:36:25;;;;;;;6.57;3.70;;;9.00;99.90;;;;;;4894718;29;20589;-86
2023/10/16 01:39:04;;;;;;;5.60;4.20;;;9.00;99.90;;;;;;4899032;29;20546;-87
2023/10/16 01:42:11;;;;;;;5.43;3.70;;;8.90;99.90;;;;;;4896840;29;20510;-86
2023/10/16 01:44:57;;;;;;;4.20;3.80;;;8.80;99.90;;;;;;4896296;29;20477;-84
2023/10/16 01:47:34;;;;;;;7.80;4.70;;;8.80;99.90;;;;;;4907849;29;20553;-86
2023/10/16 01:50:26;;;;;;;6.43;4.13;;;8.70;99.90;;;;;;4922554;28;22267;-85
2023/10/16 01:53:28;;;;;;;6.40;5.00;;;8.70;99.90;;;;;;4966200;28;20454;-84
2023/10/16 01:56:12;;;;;;;9.70;4.73;;;8.70;99.90;;;;;;4993699;28;20529;-85
2023/10/16 01:58:56;;;;;;;4.77;4.37;;;8.90;99.90;;;;;;4993994;28;20658;-86
2023/10/16 02:01:41;;;;;;;4.30;3.93;;;8.70;99.90;;;;;;4998490;28;20834;-86
2023/10/16 02:04:25;;;;;;;4.10;3.70;;;8.70;99.90;;;;;;4990346;28;20488;-87
2023/10/16 02:07:17;;;;;;;4.80;4.30;;;8.70;99.90;;;;;;5012076;28;20450;-86
2023/10/16 02:09:59;;;;;;;4.40;3.60;;;8.80;99.90;;;;;;5014497;28;20486;-89
2023/10/16 02:12:40;;;;;;;4.63;3.80;;;8.70;99.90;;;;;;4993275;28;20489;-86
2023/10/16 02:15:21;;;;;;;4.10;3.70;;;8.70;99.90;;;;;;5010242;28;20533;-86
2023/10/16 02:18:32;;;;;;;4.67;3.80;;;8.70;99.90;;;;;;4999257;28;20433;-87
2023/10/16 02:21:19;;;;;;;6.47;3.80;;;8.70;99.90;;;;;;4995532;28;21831;-86
2023/10/16 02:24:11;;;;;;;6.57;4.20;;;8.80;99.90;;;;;;4996587;28;20466;-86
2023/10/16 02:26:56;;;;;;;4.40;4.00;;;8.80;99.90;;;;;;4992822;28;20561;-85
2023/10/16 02:29:45;;;;;;;5.80;4.83;;;8.90;99.90;;;;;;5018362;28;20466;-87
2023/10/16 02:32:27;;;;;;;4.70;3.50;;;8.80;99.90;;;;;;4995840;28;20461;-87
2023/10/16 02:34:59;;;;;;;4.40;3.50;;;8.90;99.90;;;;;;4996730;28;20453;-85
2023/10/16 02:37:45;;;;;;;7.57;4.00;;;8.90;99.90;;;;;;5003904;28;20462;-87
2023/10/16 02:40:44;;;;;;;4.90;3.90;;;8.80;99.90;;;;;;5004185;28;20514;-86
2023/10/16 02:43:46;;;;;;;5.83;4.20;;;8.60;99.90;;;;;;5008455;28;20458;-87
2023/10/16 02:46:21;;;;;;;5.27;3.27;;;8.50;99.90;;;;;;4998057;28;20454;-86
2023/10/16 02:49:10;;;;;;;3.63;3.30;;;8.50;99.90;;;;;;4993138;28;20965;-86
2023/10/16 02:51:55;;;;;;;7.10;3.63;;;8.60;99.90;;;;;;4992578;28;20520;-86
2023/10/16 02:54:37;;;;;;;4.10;3.70;;;8.50;99.90;;;;;;5006735;28;20463;-85
2023/10/16 02:57:15;;;;;;;4.90;4.20;;;8.40;99.90;;;;;;4996611;28;20513;-86
2023/10/16 03:00:07;;;;;;;7.57;3.23;;;8.50;99.90;;;;;;5015119;28;21092;-88
2023/10/16 03:02:57;;;;;;;3.87;3.57;;;8.50;99.90;;;;;;4987031;28;20484;-85
2023/10/16 03:05:35;;;;;;;4.50;3.70;;;8.60;99.90;;;;;;4990990;28;20518;-86
2023/10/16 03:08:36;;;;;;;4.80;3.17;;;8.30;99.90;;;;;;5000863;28;20800;-86
2023/10/16 03:11:13;;;;;;;5.60;3.57;;;8.30;99.90;;;;;;4994880;28;20478;-87
2023/10/16 03:17:10;;;;;;;6.60;4.27;;;8.50;99.90;;;;;;5001266;28;20507;-86
2023/10/16 03:20:07;;;;;;;4.40;4.00;;;8.60;99.90;;;;;;5007647;28;20533;-87
2023/10/16 03:22:54;;;;;;;3.53;3.23;;;8.60;99.90;;;;;;5009688;28;20473;-88
2023/10/16 03:28:42;;;;;;;5.07;3.77;;;8.50;99.90;;;;;;4998958;28;20485;-86
2023/10/16 03:31:28;;;;;;;5.40;3.47;;;8.30;99.90;;;;;;5001666;28;20595;-85
2023/10/16 03:33:59;;;;;;;5.07;4.57;;;8.30;99.90;;;;;;5015174;28;20449;-86
2023/10/16 03:36:49;;;;;;;4.93;4.53;;;8.30;99.90;;;;;;5002165;28;20855;-84
2023/10/16 03:39:38;;;;;;;7.40;3.73;;;8.20;99.90;;;;;;4927817;28;20551;-85
2023/10/16 03:42:10;;;;;;;5.33;3.57;;;8.10;99.90;;;;;;4904048;29;20542;-85
2023/10/16 03:45:03;;;;;;;4.10;3.70;;;7.90;99.90;;;;;;4891576;29;20500;-86
2023/10/16 03:47:49;;;;;;;4.00;3.23;;;8.00;99.90;;;;;;4897089;29;20451;-85
2023/10/16 03:53:22;;;;;;;4.33;3.60;;;7.90;99.90;;;;;;4904218;29;20739;-86
2023/10/16 03:56:10;;;;;;;3.83;3.40;;;7.90;99.90;;;;;;4902880;29;21703;-85
2023/10/16 03:58:47;;;;;;;4.60;3.83;;;7.90;99.90;;;;;;4914833;29;20439;-86
2023/10/16 04:01:37;;;;;;;3.93;3.30;;;7.90;99.90;;;;;;4955107;28;20479;-85
2023/10/16 04:04:12;;;;;;;5.03;3.17;;;7.90;99.90;;;;;;4973588;28;20461;-86
2023/10/16 04:09:58;;;;;;;6.67;3.93;;;7.70;99.90;;;;;;4968177;28;20492;-87
2023/10/16 04:12:37;;;;;;;3.60;3.30;;;7.90;99.90;;;;;;4954600;28;20547;-85
2023/10/16 04:15:23;;;;;;;4.07;3.67;;;7.80;99.90;;;;;;4966911;28;20460;-85
2023/10/16 04:18:04;;;;;;;4.10;3.50;;;7.90;99.90;;;;;;5018084;28;20464;-85
2023/10/16 04:23:57;;;;;;;4.23;3.57;;;7.90;99.90;;;;;;5016967;28;20912;-85
2023/10/16 04:26:36;;;;;;;4.70;4.27;;;8.00;99.90;;;;;;5021672;28;20493;-85
2023/10/16 04:29:25;;;;;;;5.47;3.70;;;8.00;99.90;;;;;;5008505;28;20454;-84
2023/10/16 04:32:29;;;;;;;4.70;3.93;;;8.00;99.90;;;;;;5010175;28;20518;-84
2023/10/16 04:38:31;;;;;;;6.60;4.17;;;7.60;99.90;;;;;;5015249;28;20987;-86
2023/10/16 04:42:49;;;;;;;3.50;3.20;;;7.50;99.90;;;;;;5010772;28;20465;-85
2023/10/16 04:44:49;;;;;;;9.03;4.53;;;7.50;99.90;;;;;;4985157;28;20481;-87
2023/10/16 04:47:41;;;;;;;6.27;4.37;;;7.50;99.90;;;;;;5007588;28;20883;-87
2023/10/16 04:53:48;;;;;;;5.80;5.20;;;7.50;99.90;;;;;;5007901;28;20461;-87
2023/10/16 04:57:37;;;;;;;6.43;4.87;;;7.60;99.90;;;;;;5001900;28;20485;-88
2023/10/16 05:03:22;;;;;;;9.60;6.53;;;7.80;99.90;;;;;;5011753;28;20450;-84
2023/10/16 05:06:14;;;;;;;9.63;7.03;;;7.70;99.90;;;;;;5007704;28;20472;-86
2023/10/16 06:14:57;;;;;;;10.20;6.80;;;7.10;99.90;;;;;;4966887;28;20442;-85
2023/10/16 06:17:54;;;;;;;7.77;6.00;;;7.00;99.90;;;;;;4959315;28;20492;-86
2023/10/16 06:20:32;;;;;;;6.60;5.40;;;6.90;99.90;;;;;;4970371;28;20553;-86
2023/10/16 06:23:22;;;;;;;7.10;5.60;;;7.20;99.90;;;;;;4969580;28;20547;-87
2023/10/16 06:26:38;;;;;;;;;;;;;;;;;;;;;
2023/10/16 06:33:02;;;;;;;6.60;6.00;;;7.00;99.90;;;;;;4940912;28;20452;-84
2023/10/16 06:35:55;;;;;;;6.80;5.90;;;6.90;99.90;;;;;;4973988;28;20496;-86
2023/10/16 06:42:45;;;;;;;6.57;5.00;;;6.80;99.90;;;;;;4961304;28;20480;-87
2023/10/16 06:46:09;;;;;;;6.33;4.87;;;6.90;99.90;;;;;;4936050;28;20663;-86
2023/10/16 06:49:36;;;;;;;5.87;5.27;;;7.00;99.90;;;;;;4981177;28;20464;-87
2023/10/16 06:52:25;;;;;;;6.17;4.23;;;6.90;99.90;;;;;;4972515;28;20453;-87
2023/10/16 06:55:24;;;;;;;6.87;4.63;;;6.90;99.90;;;;;;4979617;28;21286;-86
2023/10/16 06:58:36;;;;;;;5.20;4.63;;;6.90;99.90;;;;;;4978432;28;20524;-85
2023/10/16 07:01:22;;;;;;;6.17;4.80;;;6.90;99.90;;;;;;4975545;28;20582;-85
2023/10/16 07:04:11;;;;;;;5.27;4.77;;;6.80;99.90;;;;;;4976289;28;20447;-86
2023/10/16 07:06:52;;;;;;;6.33;4.80;;;6.80;99.90;;;;;;4978052;28;20463;-86
2023/10/16 07:09:38;;;;;;;4.83;4.23;;;7.20;99.90;;;;;;4981436;28;20494;-84
2023/10/16 07:12:50;;;;;;;5.17;4.67;;;7.10;99.90;;;;;;4986035;28;20543;-86
2023/10/16 07:15:59;;;;;;;4.80;4.30;;;7.20;99.90;;;;;;4972023;28;20460;-85
2023/10/16 07:18:35;;;;;;;6.97;4.70;;;7.40;99.90;;;;;;4979961;28;20579;-86
2023/10/16 07:21:20;;;;;;;9.43;5.00;;;7.60;99.90;;;;;;5083564;22;20567;-85
2023/10/16 07:24:09;;;;;;;7.83;5.03;;;7.80;99.90;;;;;;5032468;28;20460;-85
2023/10/16 07:27:12;;;;;;;7.30;5.83;;;7.60;99.90;;;;;;5037252;28;20456;-85
2023/10/16 07:29:56;;;;;;;6.07;5.30;;;7.60;99.90;;;;;;5031923;28;20484;-85
2023/10/16 07:33:01;;;;;;;7.23;5.43;;;8.00;99.90;;;;;;5035918;28;20449;-86
2023/10/16 07:36:18;;;;;;;7.47;5.70;;;8.10;99.90;;;;;;5022738;28;20529;-88
2023/10/16 07:38:55;;;;;;;7.83;4.90;;;8.10;99.90;;;;;;5025217;28;20488;-84
2023/10/16 07:41:37;;;;;;;6.77;4.83;;;8.00;99.90;;;;;;5025623;28;20488;-85
2023/10/16 07:44:20;;;;;;;7.67;6.00;;;7.80;99.90;;;;;;5038693;28;20472;-85
2023/10/16 07:47:01;;;;;;;5.77;5.10;;;7.90;99.90;;;;;;5040563;28;20449;-86
2023/10/16 07:49:49;;;;;;;5.37;4.53;;;7.90;99.90;;;;;;5043444;28;20523;-86
2023/10/16 07:52:41;;;;;;;7.03;4.80;;;7.80;99.90;;;;;;5023548;28;20507;-84
2023/10/16 07:55:38;;;;;;;5.23;4.70;;;7.70;99.90;;;;;;5028043;28;20551;-86
2023/10/16 07:58:33;;;;;;;7.17;5.63;;;7.50;99.90;;;;;;4962314;28;20484;-85
2023/10/16 08:01:48;;;;;;;5.77;4.07;;;7.60;99.90;;;;;;5023583;28;20480;-85
2023/10/16 08:04:35;;;;;;;7.63;5.50;;;7.70;99.90;;;;;;5039141;28;20564;-86
2023/10/16 08:07:18;;;;;;;6.43;5.80;;;7.50;99.90;;;;;;5022892;28;20449;-86
2023/10/16 08:10:28;;;;;;;8.23;6.60;;;7.30;99.90;;;;;;5037686;28;20484;-86
2023/10/16 08:16:26;;;;;;;7.70;6.00;;;7.50;99.90;;;;;;5018140;28;20456;-86
2023/10/16 08:19:11;;;;;;;5.63;4.30;;;7.40;99.90;;;;;;5039438;28;20465;-87
2023/10/16 08:22:17;;;;;;;6.73;6.00;;;7.40;99.90;;;;;;5037692;28;20468;-87
2023/10/16 08:28:22;;;;;;;7.23;6.37;;;7.50;99.90;;;;;;5021041;28;20528;-86
2023/10/16 08:31:31;;;;;;;8.50;6.00;;;7.60;99.90;;;;;;5006928;28;20480;-85
2023/10/16 08:34:31;;;;;;;8.50;6.17;;;7.70;99.90;;;;;;5003938;28;22158;-84
2023/10/16 08:37:20;;;;;;;10.10;7.23;;;7.70;99.90;;;;;;5001036;28;20477;-85
2023/10/16 08:40:19;;;;;;;12.03;7.73;;;7.80;99.90;;;;;;5031487;28;20546;-84
2023/10/16 08:43:39;;;;;;;9.93;6.77;;;7.90;99.90;;;;;;5011949;28;20556;-83
2023/10/16 08:46:30;;;;;;;8.30;6.57;;;8.20;99.90;;;;;;5011556;28;20535;-83
2023/10/16 08:56:37;;;;;;;8.40;6.80;;;7.90;99.90;;;;;;4960973;28;20436;-84
2023/10/16 08:59:43;;;;;;;9.43;6.97;;;7.70;99.90;;;;;;4951249;28;20553;-86
2023/10/16 09:03:05;;;;;;;13.27;7.67;;;7.90;99.90;;;;;;4964808;28;22439;-84
2023/10/16 09:05:44;;;;;;;15.50;7.70;;;7.90;99.90;;;;;;4945869;28;20575;-85
2023/10/16 09:08:26;;;;;;;11.53;8.10;;;8.10;99.90;;;;;;4952118;28;20498;-86
2023/10/16 09:11:07;;;;;;;14.37;8.20;;;8.00;99.90;;;;;;4967489;28;20487;-86
2023/10/16 09:13:59;;;;;;;12.47;8.10;;;8.20;99.90;;;;;;4944998;28;20460;-87
2023/10/16 09:16:58;;;;;;;12.40;8.17;;;8.30;99.90;;;;;;4945357;28;20551;-85
2023/10/16 09:19:53;;;;;;;11.07;7.27;;;8.10;99.90;;;;;;4936763;28;20467;-85
2023/10/16 09:22:35;;;;;;;15.10;9.80;;;8.10;99.90;;;;;;4946577;28;20491;-87
2023/10/16 09:25:31;;;;;;;17.17;9.37;;;8.00;99.90;;;;;;4953155;28;20447;-86
2023/10/16 09:28:39;;;;;;;20.97;9.30;;;8.10;99.90;;;;;;4961272;28;20519;-85
2023/10/16 09:31:24;;;;;;;13.67;8.73;;;8.20;99.90;;;;;;4959238;28;21094;-88
2023/10/16 09:34:03;;;;;;;14.97;9.63;;;8.80;99.90;;;;;;5021139;28;20473;-86
2023/10/16 09:47:25;;;;;;;17.00;11.43;;;9.80;99.90;;;;;;4956703;28;20464;-85
2023/10/16 09:49:37;;;;;;;16.17;9.30;;;10.40;99.90;;;;;;4951203;28;20566;-85
2023/10/16 09:52:20;;;;;;;12.73;8.57;;;11.20;98.20;;;;;;4950813;28;20574;-85
2023/10/16 09:54:59;;;;;;;12.73;8.67;;;11.30;97.40;;;;;;4946796;28;20959;-85
2023/10/16 09:58:03;;;;;;;9.20;6.80;;;11.40;97.10;;;;;;4911361;28;20568;-86
2023/10/16 10:01:00;;;;;;;;;;;;;;;;;;;;;
2023/10/16 10:04:07;;;;;;;8.80;6.43;;;11.10;97.20;;;;;;4903315;29;20436;-89
2023/10/16 10:07:47;;;;;;;12.33;8.43;;;11.20;97.00;;;;;;4905051;29;20474;-85
2023/10/16 10:11:04;;;;;;;11.90;10.30;;;11.30;97.00;;;;;;4907761;28;20487;-84
2023/10/16 10:14:48;;;;;;;13.43;9.50;;;11.10;97.30;;;;;;4943783;28;20648;-84
2023/10/16 10:27:28;;;;;;;11.30;8.50;;;11.10;97.30;;;;;;5017355;28;20848;-86
2023/10/16 10:34:08;;;;;;;12.97;8.43;;;11.10;98.10;;;;;;5019927;28;20586;-87
2023/10/16 10:37:47;;;;;;;13.87;8.20;;;10.90;98.10;;;;;;5017063;28;20468;-84
2023/10/16 10:40:33;;;;;;;13.20;9.07;;;11.20;97.80;;;;;;5017059;28;20509;-84
2023/10/16 10:44:03;;;;;;;11.20;9.27;;;11.10;97.40;;;;;;5013253;28;20440;-84
2023/10/16 10:46:50;;;;;;;14.50;9.30;;;11.20;98.10;;;;;;5035601;28;20457;-87
2023/10/16 10:49:49;;;;;;;13.60;9.13;;;11.20;97.90;;;;;;5036997;28;20469;-87
2023/10/16 10:52:48;;;;;;;12.73;9.17;;;11.10;97.80;;;;;;5037657;28;20480;-84
2023/10/16 10:55:56;;;;;;;15.00;10.80;;;11.00;98.40;;;;;;5036667;28;20512;-84
2023/10/16 10:59:21;;;;;;;21.03;9.50;;;11.10;98.20;;;;;;4992942;28;20486;-86
2023/10/16 11:05:25;;;;;;;13.03;9.37;;;11.10;98.50;;;;;;4975927;28;20829;-85
2023/10/16 11:08:57;;;;;;;11.57;9.30;;;11.10;98.70;;;;;;4986111;28;20451;-86
2023/10/16 11:11:59;;;;;;;13.83;9.10;;;11.30;98.40;;;;;;4963753;28;20462;-87
2023/10/16 11:14:58;;;;;;;12.63;9.93;;;11.50;98.00;;;;;;5004354;28;20466;-88
2023/10/16 11:18:49;;;;;;;;;;;;;;;;;;;;;
2023/10/16 11:21:45;;;;;;;15.07;9.70;;;11.30;98.40;;;;;;5181133;22;20528;-86
2023/10/16 11:24:43;;;;;;;16.80;9.93;;;11.40;98.30;;;;;;5009245;28;20811;-84
2023/10/16 11:27:34;;;;;;;12.27;8.90;;;11.50;98.20;;;;;;5006847;28;20430;-85
2023/10/16 11:30:33;;;;;;;15.10;9.63;;;11.50;97.90;;;;;;5004199;28;20987;-88
2023/10/16 11:34:12;;;;;;;8.50;7.37;;;11.50;97.90;;;;;;5002566;28;20462;-86
2023/10/16 11:37:25;;;;;;;13.93;10.60;;;11.60;97.30;;;;;;4934591;28;20488;-85
2023/10/16 11:40:39;;;;;;;15.10;8.87;;;11.60;97.50;;;;;;4993681;28;20482;-85
2023/10/16 11:43:39;;;;;;;12.77;9.40;;;11.30;97.70;;;;;;5007980;28;21100;-88
2023/10/16 11:46:52;;;;;;;14.13;10.30;;;11.50;98.00;;;;;;5008654;28;20469;-86
2023/10/16 11:49:41;;;;;;;11.87;9.20;;;11.50;97.80;;;;;;4973362;28;20479;-87
2023/10/16 11:52:27;;;;;;;13.00;9.70;;;11.60;97.50;;;;;;5009863;28;20459;-85
2023/10/16 11:56:13;;;;;;;13.20;8.90;;;11.80;97.10;;;;;;4938863;28;20448;-87
2023/10/16 11:59:29;;;;;;;11.37;8.70;;;11.40;97.20;;;;;;4936835;28;20496;-85
2023/10/16 12:02:28;;;;;;;15.00;8.30;;;11.60;97.10;;;;;;4930985;29;20433;-85
2023/10/16 12:05:12;;;;;;;9.63;8.43;;;11.80;96.80;;;;;;4920843;29;20468;-86
2023/10/16 12:08:18;;;;;;;11.30;8.20;;;12.00;96.70;;;;;;4918293;29;21565;-84
2023/10/16 12:11:14;;;;;;;13.27;9.00;;;11.60;96.20;;;;;;4923279;28;20493;-87
2023/10/16 12:14:07;;;;;;;15.63;8.73;;;11.80;96.20;;;;;;4919043;29;21024;-87
2023/10/16 12:17:43;;;;;;;11.13;8.60;;;11.80;96.10;;;;;;4908149;29;20555;-85
2023/10/16 12:20:43;;;;;;;11.50;8.20;;;12.00;95.90;;;;;;4981904;22;20989;-84
2023/10/16 12:23:50;;;;;;;10.63;8.63;;;12.10;96.10;;;;;;5012598;28;20512;-85
2023/10/16 12:51:45;;;;;;;9.90;6.87;;;12.50;95.00;;;;;;5001995;28;20486;-86
2023/10/16 12:54:26;;;;;;;8.90;6.80;;;12.50;94.90;;;;;;5010024;28;20441;-88
2023/10/16 12:57:06;;;;;;;11.07;6.40;;;12.60;94.80;;;;;;5015065;28;20458;-85
2023/10/16 13:00:15;;;;;;;9.50;7.73;;;12.70;94.80;;;;;;5011453;28;20515;-85
2023/10/16 13:02:56;;;;;;;8.33;5.90;;;13.00;94.40;;;;;;5024397;28;21455;-86
2023/10/16 13:05:41;;;;;;;6.80;5.70;;;12.90;93.80;;;;;;5021010;28;20458;-85
2023/10/16 13:08:54;;;;;;;9.23;5.37;;;12.90;93.20;;;;;;5039057;28;20446;-85
2023/10/16 13:11:36;;;;;;;6.53;4.90;;;12.60;93.60;;;;;;5015646;28;20769;-84
2023/10/16 13:14:20;;;;;;;6.97;4.73;;;12.80;93.60;;;;;;5037471;28;21186;-86
2023/10/16 13:17:08;;;;;;;7.90;6.17;;;12.60;93.50;;;;;;5020681;28;20454;-84
2023/10/16 13:20:04;;;;;;;9.70;6.03;;;12.90;93.60;;;;;;5019417;28;22455;-86
2023/10/16 13:22:38;;;;;;;6.73;5.63;;;13.30;93.40;;;;;;5023608;28;20461;-85
2023/10/16 13:25:37;;;;;;;10.87;6.83;;;13.40;93.10;;;;;;5006433;28;20524;-88
2023/10/16 13:28:07;;;;;;;9.20;6.23;;;13.60;92.60;;;;;;5004000;28;21222;-87
2023/10/16 13:30:42;;;;;;;13.07;6.20;;;13.40;92.80;;;;;;5005590;28;20548;-87
2023/10/16 13:33:50;;;;;;;7.30;6.00;;;13.40;92.40;;;;;;5002681;28;20465;-85
2023/10/16 13:36:37;;;;;;;7.50;5.30;;;13.40;92.50;;;;;;5000545;28;20553;-85
2023/10/16 13:39:24;;;;;;;;;;;;;;;;;;;;;
2023/10/16 14:04:21;;;;;;;5.57;4.23;;;13.50;91.60;;;;;;4993112;28;20467;-86
2023/10/16 14:07:19;;;;;;;6.80;3.70;;;13.40;91.20;;;;;;4990394;28;20489;-85
2023/10/16 14:10:05;;;;;;;4.30;3.33;;;13.10;91.50;;;;;;4989710;28;20584;-84
2023/10/16 15:37:23;;;;;;;4.17;3.60;;;13.20;91.70;;;;;;5006539;28;20498;-83
2023/10/16 15:51:11;;;;;;;5.67;3.87;;;13.10;91.70;;;;;;4192494;26;20490;-84
2023/10/16 15:54:14;;;;;;;8.30;4.20;;;13.20;91.60;;;;;;5015566;28;20476;-84
2023/10/16 15:57:04;;;;;;;4.57;3.47;;;13.20;91.30;;;;;;5018051;28;20475;-85
2023/10/16 16:03:08;;;;;;;6.60;5.03;;;13.20;91.80;;;;;;5024651;28;20418;-85
2023/10/16 16:06:05;;;;;;;5.67;4.40;;;13.10;91.90;;;;;;5011837;28;20445;-84
2023/10/16 16:09:57;;;;;;;4.93;4.43;;;12.90;92.30;;;;;;5017813;28;20430;-84
2023/10/16 16:12:42;;;;;;;4.80;4.10;;;13.00;92.60;;;;;;5021414;28;20440;-87
2023/10/16 16:15:35;;;;;;;4.60;4.20;;;13.00;92.40;;;;;;5018619;28;20453;-83
2023/10/16 16:18:11;;;;;;;7.23;4.93;;;12.90;92.60;;;;;;5024870;28;20461;-84
2023/10/16 16:21:04;;;;;;;5.90;4.23;;;12.80;92.80;;;;;;5018346;28;20470;-84
2023/10/16 16:24:09;;;;;;;7.07;4.13;;;12.60;92.90;;;;;;5011641;28;20513;-86
2023/10/16 16:26:49;;;;;;;5.70;3.77;;;12.80;93.30;;;;;;5010463;28;20457;-85
2023/10/16 16:29:18;;;;;;;5.47;4.97;;;12.70;93.50;;;;;;5013410;28;20450;-84
2023/10/16 16:35:40;;;;;;;6.30;4.30;;;12.60;93.90;;;;;;4996877;28;20459;-85
2023/10/16 16:44:34;;;;;;;4.80;3.90;;;12.50;94.30;;;;;;5019201;28;20485;-85
2023/10/16 16:47:20;;;;;;;7.83;6.30;;;12.40;94.60;;;;;;5015516;28;20548;-84
2023/10/16 16:50:38;;;;;;;4.87;4.03;;;12.40;94.90;;;;;;5014820;28;20477;-86
2023/10/16 16:57:28;;;;;;;6.47;4.33;;;12.50;94.90;;;;;;5021034;28;20502;-87
2023/10/16 17:00:19;;;;;;;4.80;4.27;;;12.60;94.60;;;;;;5019579;28;20609;-83
2023/10/16 17:03:05;;;;;;;5.03;4.47;;;12.50;94.40;;;;;;5013967;28;20437;-84
2023/10/16 17:10:28;;;;;;;4.87;4.17;;;12.40;95.10;;;;;;4971376;28;20985;-85
2023/10/16 17:13:15;;;;;;;4.90;4.23;;;12.60;94.80;;;;;;4972836;28;20463;-85
2023/10/16 17:48:30;;;;;;;6.30;4.60;;;12.10;96.20;;;;;;4954961;28;20469;-85
2023/10/16 19:16:26;;;;;;;10.80;8.20;;;11.60;99.40;;;;;;5033808;28;20539;-87
2023/10/16 19:19:21;;;;;;;12.57;7.30;;;11.50;99.80;;;;;;5007082;28;20501;-88
2023/10/16 19:22:51;;;;;;;10.10;8.60;;;11.50;99.90;;;;;;5015614;28;20470;-86
2023/10/16 19:29:29;;;;;;;11.73;7.80;;;11.50;99.90;;;;;;4911434;29;20467;-87
2023/10/16 19:45:43;;;;;;;9.60;8.33;;;11.50;99.90;;;;;;5025928;28;20488;-87
2023/10/16 19:49:02;;;;;;;;;;;;;;;;;;;;;
2023/10/16 19:55:32;;;;;;;11.33;9.37;;;11.60;99.90;;;;;;4991009;28;20447;-85
2023/10/16 19:58:48;;;;;;;12.90;9.30;;;11.90;99.90;;;;;;4995297;28;20490;-84
2023/10/16 20:04:56;;;;;;;9.97;8.93;;;11.80;99.90;;;;;;5001816;28;20442;-86
2023/10/16 20:08:09;;;;;;;12.17;9.50;;;11.60;99.90;;;;;;4997908;28;20451;-85
2023/10/16 20:11:23;;;;;;;13.13;8.37;;;11.60;99.90;;;;;;4919723;29;20495;-86
2023/10/16 20:14:25;;;;;;;11.93;8.30;;;11.30;99.90;;;;;;4883280;29;20445;-84
2023/10/16 20:17:25;;;;;;;10.07;9.03;;;11.20;99.90;;;;;;4919859;29;21109;-82
2023/10/16 20:24:35;;;;;;;;;;;;;;;;;;;;;
2023/10/16 20:27:36;;;;;;;9.87;7.77;;;11.10;99.90;;;;;;4922438;29;20454;-89
2023/10/16 20:33:42;;;;;;;9.43;8.10;;;11.20;99.90;;;;;;4916512;29;20506;-84
2023/10/16 20:36:53;;;;;;;10.00;8.10;;;11.00;99.90;;;;;;4914783;29;20457;-85
2023/10/16 20:43:27;;;;;;;10.10;8.40;;;11.10;99.90;;;;;;4932744;29;20465;-86
2023/10/16 20:46:17;;;;;;;14.10;9.40;;;11.10;99.90;;;;;;4921807;29;20458;-86
2023/10/16 20:49:54;;;;;;;10.27;8.20;;;10.90;99.90;;;;;;4992141;28;20442;-85
2023/10/16 20:52:36;;;;;;;11.80;8.50;;;11.10;99.90;;;;;;4994920;28;20475;-85
2023/10/16 20:55:22;;;;;;;9.80;8.53;;;11.00;99.90;;;;;;4997148;28;20518;-88
2023/10/16 20:58:09;;;;;;;12.87;9.43;;;11.00;99.90;;;;;;4994799;28;20465;-88
2023/10/16 21:01:29;;;;;;;10.33;8.90;;;11.00;99.90;;;;;;4989982;28;20476;-85
2023/10/16 21:04:36;;;;;;;12.73;9.50;;;10.90;99.90;;;;;;4984656;28;20645;-86
2023/10/16 21:07:32;;;;;;;14.50;8.37;;;10.70;99.90;;;;;;4997139;28;20442;-84
2023/10/16 21:10:39;;;;;;;10.23;8.73;;;10.50;99.90;;;;;;5015610;22;20482;-86
2023/10/16 21:13:19;;;;;;;13.50;8.77;;;10.60;99.90;;;;;;5020041;28;20454;-85
2023/10/16 21:16:06;;;;;;;11.53;8.10;;;10.80;99.90;;;;;;5005632;28;20457;-85
2023/10/16 21:19:10;;;;;;;10.80;8.23;;;10.60;99.90;;;;;;5020627;28;20475;-85
2023/10/16 21:22:23;;;;;;;;;;;;;;;;;;;;;
2023/10/16 21:25:10;;;;;;;11.80;8.47;;;10.50;99.90;;;;;;5021100;28;20461;-86
2023/10/16 21:31:00;;;;;;;11.80;7.90;;;10.40;99.90;;;;;;5017694;28;20824;-84
2023/10/16 21:34:17;;;;;;;9.97;8.90;;;10.30;99.90;;;;;;5013030;28;20458;-85
2023/10/16 21:37:11;;;;;;;13.97;8.70;;;10.60;99.90;;;;;;5018370;28;20521;-84
2023/10/16 21:40:13;;;;;;;10.43;7.67;;;10.70;99.90;;;;;;5009488;28;20508;-86
2023/10/16 21:46:04;;;;;;;9.50;7.37;;;10.50;99.90;;;;;;5012304;28;20468;-86
2023/10/16 21:48:51;;;;;;;8.43;7.30;;;10.30;99.90;;;;;;5014174;28;20474;-86
2023/10/16 21:51:38;;;;;;;8.53;6.73;;;10.40;99.90;;;;;;5013765;28;20481;-88
2023/10/16 21:54:28;;;;;;;8.47;7.43;;;10.50;99.90;;;;;;5008384;28;20939;-87
2023/10/16 21:57:20;;;;;;;10.47;7.80;;;10.50;99.90;;;;;;5015111;28;21144;-84
2023/10/16 22:00:57;;;;;;;9.50;7.80;;;10.50;99.90;;;;;;4997739;28;20478;-88
2023/10/16 22:03:38;;;;;;;8.40;7.10;;;10.30;99.90;;;;;;5027692;28;20446;-84
2023/10/16 22:06:25;;;;;;;7.60;6.80;;;10.40;99.90;;;;;;5010850;28;20525;-85
2023/10/16 22:09:15;;;;;;;8.97;7.30;;;10.40;99.90;;;;;;5014754;28;20504;-86
2023/10/16 22:12:14;;;;;;;7.67;6.97;;;10.40;99.90;;;;;;5013057;28;22859;-87
2023/10/16 22:15:41;;;;;;;9.50;7.17;;;10.50;99.90;;;;;;5010994;28;20472;-85
2023/10/16 22:18:24;;;;;;;9.00;7.10;;;10.30;99.90;;;;;;5011212;28;21780;-86
2023/10/16 22:21:28;;;;;;;9.53;6.43;;;10.20;99.90;;;;;;5020670;28;20482;-85
2023/10/16 22:24:38;;;;;;;5.73;5.13;;;10.30;99.90;;;;;;5026011;28;20469;-85
2023/10/16 22:27:29;;;;;;;7.33;6.20;;;10.40;99.90;;;;;;5016775;28;20445;-85
2023/10/16 22:30:19;;;;;;;8.00;6.10;;;10.30;99.90;;;;;;5016747;28;20484;-87
2023/10/16 22:33:24;;;;;;;9.20;6.67;;;10.10;99.90;;;;;;5015727;28;20462;-84
2023/10/16 22:36:27;;;;;;;8.93;5.93;;;10.20;99.90;;;;;;4970779;28;20449;-85
2023/10/16 22:43:07;;;;;;;;;;;;;;;;;;;;;
2023/10/16 22:46:07;;;;;;;7.70;5.83;;;10.20;99.90;;;;;;5026330;28;20515;-85
2023/10/16 22:48:50;;;;;;;8.40;6.27;;;10.20;99.90;;;;;;5020437;28;20500;-85
2023/10/16 22:51:53;;;;;;;8.27;5.53;;;10.40;99.90;;;;;;5009431;28;20481;-88
2023/10/16 22:54:40;;;;;;;6.10;5.10;;;10.30;99.90;;;;;;5011331;28;20469;-84
2023/10/16 22:57:46;;;;;;;7.40;5.13;;;10.20;99.90;;;;;;5010842;28;20461;-86
2023/10/16 23:00:49;;;;;;;6.63;5.03;;;10.10;99.90;;;;;;5009498;28;20532;-85
2023/10/16 23:03:58;;;;;;;8.30;3.90;;;10.20;99.90;;;;;;5008999;28;21664;-87
2023/10/16 23:06:55;;;;;;;6.03;5.03;;;10.20;99.90;;;;;;4944867;28;20447;-85
2023/10/16 23:10:13;;;;;;;5.83;5.10;;;10.30;99.90;;;;;;4950961;28;20479;-85
2023/10/16 23:13:31;;;;;;;;;;;;;;;;;;;;;